Hartlepool, United Kingdom
Current Conditions -  °F | °C
As of 7:20 AM on Saturday 20 Dec 2014 (Local Time) from EGNV Reporting Station
Scattered Clouds Scattered Clouds  
Wind Chill: 37°   Ceiling: Unl
Heat Index: 45°   Visibility: 6mi
Dew Point: 36°   Wind: 20mph
Humidity: 71%   Direction: 270°W
Pressure: 29.97"   Gusts: 33mph
Location:  54.67°N, 1.27°W
Report Text: EGNV 200720Z 27017G29KT 9999 SCT033 07/02 Q1015
Loading
Personal Weather Stations






























Interactive Weather Map New forecast layout! Learn more

10-Day Weather Forecast

Advertisements
Track Severe Weather on mobile